Time;durP1;ratioP1;P1;durP2;ratioP2;P2;SDS_P1;SDS_P2;PMS_P1;PMS_P2;Temp;Humidity;BMP_temperature;BMP_pressure;BME280_temperature;BME280_humidity;BME280_pressure;Samples;Min_cycle;Max_cycle;Signal;HPM_P1;HPM_P2
2022/04/09 00:02:19;;;;;;;14.50;3.42;;;;;;;3.30;80.09;100402.47;5030752;28;20453;-78
2022/04/09 00:04:45;;;;;;;26.48;3.83;;;;;;;3.27;80.37;100408.56;5014713;28;20025;-77
2022/04/09 00:07:10;;;;;;;24.60;4.43;;;;;;;3.25;80.49;100415.53;5035410;28;20053;-78
2022/04/09 00:09:36;;;;;;;29.25;4.32;;;;;;;3.24;80.91;100421.66;5043813;28;20190;-77
2022/04/09 00:12:02;;;;;;;16.33;3.42;;;;;;;3.26;80.73;100422.50;5052167;28;20102;-77
2022/04/09 00:14:28;;;;;;;19.52;3.58;;;;;;;3.27;80.29;100428.63;5045242;28;20025;-77
2022/04/09 00:16:53;;;;;;;13.40;2.70;;;;;;;3.26;80.32;100432.97;5014467;28;20060;-77
2022/04/09 00:19:19;;;;;;;14.13;2.92;;;;;;;3.27;80.03;100436.47;5030902;28;20033;-77
2022/04/09 00:21:46;;;;;;;19.73;4.03;;;;;;;3.31;80.18;100443.44;5032164;28;20114;-77
2022/04/09 00:24:12;;;;;;;18.50;2.78;;;;;;;3.31;80.13;100448.69;5032815;28;20029;-77
2022/04/09 00:26:38;;;;;;;21.35;2.95;;;;;;;3.31;79.76;100446.94;5032455;28;20037;-77
2022/04/09 00:29:04;;;;;;;20.88;3.80;;;;;;;3.32;80.00;100450.44;5028199;28;20128;-77
2022/04/09 00:31:29;;;;;;;15.43;2.92;;;;;;;3.33;80.29;100460.03;5035405;28;20051;-77
2022/04/09 00:33:55;;;;;;;16.90;3.50;;;;;;;3.32;80.25;100459.16;5035019;28;20571;-77
2022/04/09 00:36:21;;;;;;;25.25;3.35;;;;;;;3.31;79.78;100457.41;5042960;28;20489;-77
2022/04/09 00:38:46;;;;;;;15.48;3.92;;;;;;;3.32;79.96;100466.16;5025325;28;20025;-77
2022/04/09 00:41:12;;;;;;;24.98;4.45;;;;;;;3.28;80.41;100467.88;5031594;28;20143;-77
2022/04/09 00:43:41;;;;;;;20.15;4.03;;;;;;;3.30;80.49;100479.22;5037122;28;20105;-77
2022/04/09 00:46:07;;;;;;;21.05;3.75;;;;;;;3.28;80.01;100480.09;5028294;28;20048;-77
2022/04/09 00:48:36;;;;;;;20.23;3.42;;;;;;;3.29;79.74;100479.19;5034485;28;20463;-78
2022/04/09 00:51:02;;;;;;;19.10;3.42;;;;;;;3.29;79.85;100485.34;5033047;28;20395;-78
2022/04/09 00:53:33;;;;;;;21.58;3.47;;;;;;;3.33;79.54;100491.44;5031642;28;20037;-78
2022/04/09 00:56:13;;;;;;;20.63;2.88;;;;;;;3.31;79.67;100487.94;5030048;28;20029;-78
2022/04/09 00:58:43;;;;;;;13.20;2.80;;;;;;;3.33;79.51;100499.28;5029902;28;20025;-78
2022/04/09 01:01:11;;;;;;;14.88;2.88;;;;;;;3.30;79.52;100504.53;5031720;28;20048;-78
2022/04/09 01:03:38;;;;;;;16.65;2.92;;;;;;;3.32;79.57;100503.66;5033209;28;20130;-78
2022/04/09 01:06:06;;;;;;;20.10;2.88;;;;;;;3.29;79.30;100505.38;5031046;28;20041;-78
2022/04/09 01:08:32;;;;;;;20.90;3.20;;;;;;;3.28;79.66;100524.56;5041432;28;20035;-78
2022/04/09 01:10:57;;;;;;;20.98;3.47;;;;;;;3.26;79.17;100516.72;5051251;28;20033;-78
2022/04/09 01:13:26;;;;;;;17.77;3.85;;;;;;;3.23;79.66;100519.31;5038306;28;20448;-78
2022/04/09 01:15:52;;;;;;;19.98;3.28;;;;;;;3.23;80.07;100514.97;5013605;28;20485;-78
2022/04/09 01:18:18;;;;;;;26.75;3.20;;;;;;;3.22;79.99;100528.94;5013198;28;20045;-78
2022/04/09 01:20:50;;;;;;;16.38;3.30;;;;;;;3.19;80.18;100533.25;5035523;28;20469;-78
2022/04/09 01:23:16;;;;;;;15.38;2.70;;;;;;;3.17;80.38;100535.03;4996898;28;20147;-78
2022/04/09 01:25:42;;;;;;;21.20;3.63;;;;;;;3.15;80.69;100539.38;4997488;28;20179;-78
2022/04/09 01:28:13;;;;;;;18.05;3.50;;;;;;;3.14;80.35;100550.69;5013441;28;20113;-78
2022/04/09 01:30:39;;;;;;;20.02;3.80;;;;;;;3.09;80.72;100548.06;5032345;28;20040;-78
2022/04/09 01:33:04;;;;;;;21.17;3.70;;;;;;;3.08;80.44;100559.38;5049242;28;20094;-78
2022/04/09 01:35:30;;;;;;;16.20;3.42;;;;;;;3.08;80.51;100563.75;5044513;28;20026;-78
2022/04/09 01:37:56;;;;;;;16.35;3.80;;;;;;;3.06;80.88;100560.25;5029150;28;20036;-78
2022/04/09 01:40:22;;;;;;;14.60;3.17;;;;;;;3.05;80.47;100569.84;5015613;28;20653;-78
2022/04/09 01:42:50;;;;;;;21.90;3.25;;;;;;;3.00;80.21;100566.34;5030766;28;20152;-78
2022/04/09 01:45:16;;;;;;;20.65;4.72;;;;;;;3.00;80.08;100575.06;5016351;28;20388;-78
2022/04/09 01:47:43;;;;;;;19.98;3.10;;;;;;;3.01;79.93;100584.63;5032245;28;20029;-78
2022/04/09 01:50:10;;;;;;;15.30;2.70;;;;;;;2.97;79.75;100589.88;5029319;28;20060;-78
2022/04/09 01:52:36;;;;;;;19.13;3.38;;;;;;;2.95;80.08;100586.38;5013193;28;20042;-78
2022/04/09 01:55:02;;;;;;;19.80;2.88;;;;;;;2.92;80.22;100595.06;5029129;28;20025;-78
2022/04/09 01:57:28;;;;;;;12.93;2.88;;;;;;;2.90;80.30;100593.31;5012811;28;20428;-78
2022/04/09 01:59:54;;;;;;;12.27;2.47;;;;;;;2.84;80.47;100601.97;5028288;28;20129;-78
2022/04/09 02:02:19;;;;;;;21.17;3.60;;;;;;;2.80;81.22;100606.34;5028661;28;20104;-78
2022/04/09 02:04:45;;;;;;;18.58;4.07;;;;;;;2.80;80.59;100608.94;5029063;28;20084;-78
2022/04/09 02:07:11;;;;;;;16.48;3.10;;;;;;;2.82;80.90;100610.69;5032991;28;20063;-78
2022/04/09 02:09:37;;;;;;;19.40;4.28;;;;;;;2.79;80.46;100620.28;5042081;28;20119;-79
2022/04/09 02:12:06;;;;;;;14.32;2.83;;;;;;;2.75;80.89;100615.03;5048502;28;20503;-78
2022/04/09 02:14:32;;;;;;;19.20;3.22;;;;;;;2.75;81.44;100625.50;5031578;28;20559;-78
2022/04/09 02:16:57;;;;;;;13.75;2.70;;;;;;;2.77;80.86;100624.63;5030279;28;20045;-79
2022/04/09 02:19:23;;;;;;;12.63;2.83;;;;;;;2.78;80.88;100634.22;5029305;28;20064;-79
2022/04/09 02:21:48;;;;;;;17.90;3.05;;;;;;;2.78;80.20;100639.44;4999169;28;20021;-80
2022/04/09 02:24:14;;;;;;;27.40;4.03;;;;;;;2.81;80.50;100638.59;5044228;28;20072;-79
2022/04/09 02:26:40;;;;;;;18.08;3.70;;;;;;;2.82;80.38;100637.75;5039087;28;20124;-79
2022/04/09 02:29:06;;;;;;;20.02;3.30;;;;;;;2.88;80.76;100644.75;5012397;28;20101;-79
2022/04/09 02:31:31;;;;;;;16.88;3.60;;;;;;;2.88;79.95;100656.06;5028653;28;20143;-79
2022/04/09 02:33:57;;;;;;;16.10;2.72;;;;;;;2.88;79.93;100663.91;5028444;28;20041;-79
2022/04/09 02:36:24;;;;;;;15.35;2.72;;;;;;;2.86;79.61;100670.88;5023310;28;20065;-79
2022/04/09 02:38:50;;;;;;;13.25;3.08;;;;;;;2.82;80.37;100670.84;5028298;28;20030;-79
2022/04/09 02:41:16;;;;;;;19.38;4.07;;;;;;;2.78;80.27;100657.75;5012009;28;20401;-79
2022/04/09 02:43:43;;;;;;;17.40;4.20;;;;;;;2.79;79.64;100654.28;5028020;28;20057;-79
2022/04/09 02:46:09;;;;;;;14.48;2.80;;;;;;;2.83;79.65;100660.41;5012294;28;20037;-79
2022/04/09 02:48:38;;;;;;;13.90;2.88;;;;;;;2.89;79.78;100676.13;5028420;28;20128;-79
2022/04/09 02:51:03;;;;;;;16.80;2.50;;;;;;;2.91;79.36;100682.25;4983119;28;20040;-79
2022/04/09 02:53:29;;;;;;;8.18;2.10;;;;;;;2.95;79.13;100680.53;5017948;28;20033;-79
2022/04/09 02:55:57;;;;;;;9.73;2.30;;;;;;;2.94;78.78;100687.53;5031621;28;20116;-79
2022/04/09 02:58:23;;;;;;;13.07;2.50;;;;;;;2.96;78.88;100679.66;5030485;28;20639;-79
2022/04/09 03:00:49;;;;;;;11.40;1.92;;;;;;;2.96;78.37;100688.38;5028410;28;20039;-79
2022/04/09 03:03:18;;;;;;;14.02;3.33;;;;;;;2.99;78.44;100690.13;5001825;28;20043;-79
2022/04/09 03:05:46;;;;;;;9.07;2.00;;;;;;;2.99;77.56;100693.66;5030413;28;20033;-79
2022/04/09 03:08:12;;;;;;;11.95;2.33;;;;;;;3.03;77.88;100701.50;5015213;28;20033;-79
2022/04/09 03:10:37;;;;;;;9.80;2.35;;;;;;;3.01;77.47;100699.75;5048226;28;20044;-79
2022/04/09 03:13:06;;;;;;;9.30;1.88;;;;;;;3.05;78.01;100710.25;5038811;28;20026;-79
2022/04/09 03:15:32;;;;;;;10.88;2.65;;;;;;;3.01;77.82;100712.81;5028224;28;20029;-79
2022/04/09 03:17:58;;;;;;;10.95;2.47;;;;;;;2.99;78.03;100714.59;5030584;28;20042;-79
2022/04/09 03:20:25;;;;;;;17.20;2.67;;;;;;;3.01;77.69;100718.06;5028194;28;20021;-79
2022/04/09 03:22:52;;;;;;;13.50;2.38;;;;;;;3.00;78.29;100716.31;5011763;28;20029;-79
2022/04/09 03:25:27;;;;;;;10.43;2.35;;;;;;;2.99;78.67;100718.91;4984100;28;20033;-80
2022/04/09 03:27:55;;;;;;;12.35;2.72;;;;;;;2.98;78.44;100723.28;5027242;28;20120;-79
2022/04/09 03:30:21;;;;;;;19.75;3.20;;;;;;;2.96;78.27;100724.13;5027601;28;20112;-79
2022/04/09 03:32:48;;;;;;;8.88;2.03;;;;;;;2.97;77.93;100733.75;5028195;28;20125;-79
2022/04/09 03:35:19;;;;;;;11.52;2.35;;;;;;;2.95;78.92;100731.09;5027868;28;20069;-79
2022/04/09 03:37:46;;;;;;;13.93;2.60;;;;;;;2.92;78.21;100743.31;5031799;28;20044;-79
2022/04/09 03:40:16;;;;;;;15.27;2.70;;;;;;;2.88;78.24;100742.38;5031244;28;20025;-79
2022/04/09 03:42:42;;;;;;;17.05;2.78;;;;;;;2.86;78.81;100738.00;5047085;28;20057;-79
2022/04/09 03:45:08;;;;;;;10.18;2.70;;;;;;;2.83;79.14;100744.09;5015086;28;20060;-79
2022/04/09 03:47:35;;;;;;;12.35;2.45;;;;;;;2.80;79.70;100747.56;5014787;28;20491;-79
2022/04/09 03:50:05;;;;;;;17.83;2.60;;;;;;;2.75;79.96;100749.25;5015513;28;20486;-79
2022/04/09 03:52:30;;;;;;;10.27;2.78;;;;;;;2.71;80.11;100750.09;5014292;28;20141;-79
2022/04/09 03:54:56;;;;;;;14.73;2.58;;;;;;;2.68;80.22;100741.34;4998336;28;20029;-79
2022/04/09 03:57:22;;;;;;;15.45;2.85;;;;;;;2.63;80.27;100749.16;5047029;28;20033;-79
2022/04/09 03:59:54;;;;;;;16.20;2.30;;;;;;;2.66;80.28;100756.16;5029324;28;20057;-79
2022/04/09 04:02:19;;;;;;;9.45;3.13;;;;;;;2.59;80.58;100769.16;5034232;28;20041;-79
2022/04/09 04:04:45;;;;;;;16.17;2.83;;;;;;;2.54;81.04;100769.97;5033085;28;20041;-79
2022/04/09 04:07:13;;;;;;;15.88;3.78;;;;;;;2.53;80.70;100776.06;5000613;28;20041;-79
2022/04/09 04:09:42;;;;;;;18.20;2.83;;;;;;;2.49;80.79;100779.50;5030563;28;20065;-79
2022/04/09 04:12:08;;;;;;;15.52;3.38;;;;;;;2.49;81.30;100784.72;5029917;28;20422;-79
2022/04/09 04:14:34;;;;;;;22.30;3.25;;;;;;;2.48;80.86;100785.59;5033946;28;20115;-79
2022/04/09 04:17:01;;;;;;;13.02;2.47;;;;;;;2.46;81.23;100785.59;5031172;28;20037;-79
2022/04/09 04:19:29;;;;;;;14.48;2.92;;;;;;;2.44;81.88;100789.03;5029020;28;20117;-79
2022/04/09 04:21:55;;;;;;;15.32;3.10;;;;;;;2.40;81.87;100797.69;5030440;28;20552;-79
2022/04/09 04:24:23;;;;;;;23.75;3.40;;;;;;;2.37;81.92;100803.78;4998855;28;20079;-79
2022/04/09 04:26:50;;;;;;;18.58;3.15;;;;;;;2.35;82.33;100803.78;5017543;28;20449;-79
2022/04/09 04:29:20;;;;;;;19.17;2.95;;;;;;;2.35;82.23;100802.91;5030671;28;20120;-79
2022/04/09 04:31:47;;;;;;;20.23;3.58;;;;;;;2.35;82.00;100805.50;5013968;28;20128;-79
2022/04/09 04:34:13;;;;;;;13.73;2.80;;;;;;;2.31;81.89;100806.34;5031955;28;20580;-79
2022/04/09 04:36:42;;;;;;;10.07;2.30;;;;;;;2.32;81.98;100810.69;5030311;28;20415;-79
2022/04/09 04:39:07;;;;;;;14.73;3.00;;;;;;;2.31;82.40;100811.56;5016451;28;20049;-79
2022/04/09 04:41:36;;;;;;;17.10;2.63;;;;;;;2.30;82.39;100823.75;5013812;28;20350;-79
2022/04/09 04:44:04;;;;;;;13.27;2.60;;;;;;;2.30;81.82;100822.84;5030382;28;20088;-79
2022/04/09 04:46:39;;;;;;;16.40;3.22;;;;;;;2.31;82.37;100829.84;5030211;28;20377;-79
2022/04/09 04:49:06;;;;;;;17.65;3.30;;;;;;;2.31;82.35;100828.09;5014250;28;20041;-79
2022/04/09 04:51:33;;;;;;;12.52;2.90;;;;;;;2.30;81.92;100828.06;5013757;28;20087;-78
2022/04/09 04:54:01;;;;;;;14.73;2.88;;;;;;;2.29;82.16;100836.78;5028963;28;20045;-79
2022/04/09 04:56:28;;;;;;;22.35;3.63;;;;;;;2.27;82.46;100835.88;5028270;28;20112;-79
2022/04/09 04:58:56;;;;;;;18.55;3.10;;;;;;;2.32;82.32;100847.28;5029562;28;20034;-79
2022/04/09 05:01:24;;;;;;;12.30;2.90;;;;;;;2.29;81.96;100836.78;5033990;28;20068;-79
2022/04/09 05:03:56;;;;;;;24.50;2.95;;;;;;;2.28;81.64;100843.75;5032459;28;20386;-79
2022/04/09 05:06:25;;;;;;;13.60;2.70;;;;;;;2.27;81.67;100848.94;5016376;28;20064;-79
2022/04/09 05:08:53;;;;;;;20.88;3.72;;;;;;;2.26;82.48;100853.31;5039438;28;20105;-79
2022/04/09 05:11:29;;;;;;;15.85;3.67;;;;;;;2.27;82.14;100856.78;5034723;28;20459;-80
2022/04/09 05:13:56;;;;;;;18.10;4.25;;;;;;;2.25;81.93;100864.63;5017296;28;20453;-79
2022/04/09 05:16:23;;;;;;;13.30;2.78;;;;;;;2.22;81.93;100864.56;5030118;28;20103;-79
2022/04/09 05:18:56;;;;;;;13.38;2.80;;;;;;;2.25;82.24;100874.19;5014631;28;20373;-79
2022/04/09 05:21:23;;;;;;;16.98;2.95;;;;;;;2.28;82.57;100882.09;5014188;28;20128;-79
2022/04/09 05:23:49;;;;;;;16.23;2.88;;;;;;;2.29;82.61;100889.06;5013557;28;20406;-79
2022/04/09 05:26:15;;;;;;;12.27;2.88;;;;;;;2.32;82.19;100895.19;5027893;28;20078;-80
2022/04/09 05:28:42;;;;;;;14.95;3.05;;;;;;;2.35;82.54;100895.25;4997747;28;20033;-80
2022/04/09 05:31:09;;;;;;;16.25;3.03;;;;;;;2.38;82.36;100898.75;4997603;28;20095;-80
2022/04/09 05:33:35;;;;;;;19.40;3.55;;;;;;;2.36;82.14;100898.72;5034124;28;20045;-80
2022/04/09 05:36:02;;;;;;;14.50;3.08;;;;;;;2.39;81.51;100900.50;5031722;28;20059;-80
2022/04/09 05:38:30;;;;;;;13.98;3.58;;;;;;;2.41;81.78;100907.50;5033328;28;20040;-80
2022/04/09 05:40:57;;;;;;;20.02;3.20;;;;;;;2.45;81.61;100916.25;5046360;28;20079;-80
2022/04/09 05:43:23;;;;;;;18.52;3.58;;;;;;;2.45;81.09;100921.47;5013178;28;20452;-80
2022/04/09 05:45:53;;;;;;;19.95;3.90;;;;;;;2.48;80.88;100919.78;5029958;28;20037;-80
2022/04/09 05:48:25;;;;;;;13.93;2.85;;;;;;;2.54;80.55;100927.69;5014185;28;20040;-79
2022/04/09 05:50:55;;;;;;;14.65;3.22;;;;;;;2.55;81.00;100929.47;5029835;28;20041;-80
2022/04/09 05:53:23;;;;;;;13.57;2.58;;;;;;;2.58;80.38;100929.50;5029288;28;20048;-80
2022/04/09 05:55:51;;;;;;;14.52;3.22;;;;;;;2.62;80.63;100940.88;5029692;28;20065;-80
2022/04/09 05:58:16;;;;;;;16.08;3.38;;;;;;;2.65;80.35;100940.91;5018495;28;20057;-79
2022/04/09 06:00:44;;;;;;;11.93;2.72;;;;;;;2.64;80.44;100946.97;5028529;28;20129;-79
2022/04/09 06:03:23;;;;;;;12.95;3.17;;;;;;;2.65;80.15;100946.16;5028882;28;20158;-79
2022/04/09 06:05:50;;;;;;;14.85;3.03;;;;;;;2.67;79.97;100953.97;5013523;28;20041;-79
2022/04/09 06:08:38;;;;;;;14.27;3.08;;;;;;;2.71;80.63;100959.28;5035971;28;20392;-79
2022/04/09 06:11:15;;;;;;;16.80;3.22;;;;;;;2.79;80.93;100962.88;5049407;28;20036;-79
2022/04/09 06:13:42;;;;;;;20.25;4.43;;;;;;;2.84;80.38;100959.41;5018417;28;20119;-79
2022/04/09 06:16:09;;;;;;;18.65;2.85;;;;;;;2.93;81.30;100981.34;5029615;28;20140;-79
2022/04/09 06:18:38;;;;;;;20.80;3.33;;;;;;;2.98;80.89;100976.16;5013671;28;20038;-79
2022/04/09 06:21:05;;;;;;;15.27;3.25;;;;;;;3.05;81.60;100985.84;5029508;28;20436;-79
2022/04/09 06:23:32;;;;;;;9.73;2.75;;;;;;;3.10;81.61;100994.63;4996851;28;20048;-80
2022/04/09 06:25:57;;;;;;;15.48;3.38;;;;;;;3.14;81.96;100992.91;5028283;28;20323;-79
2022/04/09 06:28:26;;;;;;;15.52;3.28;;;;;;;3.19;82.15;100999.97;5048997;28;20052;-79
2022/04/09 06:30:52;;;;;;;11.25;2.80;;;;;;;3.25;81.41;100998.25;5032956;28;20036;-79
2022/04/09 06:33:22;;;;;;;11.57;2.67;;;;;;;3.30;81.51;101010.53;5049313;28;20044;-79
2022/04/09 06:35:48;;;;;;;20.30;3.45;;;;;;;3.35;81.63;101015.81;5049708;28;20033;-80
2022/04/09 06:38:17;;;;;;;13.55;3.25;;;;;;;3.39;81.72;101010.63;5032889;28;20037;-79
2022/04/09 06:40:43;;;;;;;17.08;3.72;;;;;;;3.45;82.68;101021.16;5001679;28;20384;-79
2022/04/09 06:43:09;;;;;;;15.63;2.97;;;;;;;3.52;82.27;101023.84;5012292;28;20183;-79
2022/04/09 06:46:07;;;;;;;17.55;3.22;;;;;;;3.55;82.02;101027.34;5028620;28;20187;-79
2022/04/09 06:48:52;;;;;;;15.57;2.85;;;;;;;3.60;82.82;101037.88;5014857;28;20087;-78
2022/04/09 06:51:36;;;;;;;8.52;2.40;;;;;;;3.61;82.24;101043.16;5040495;28;20358;-78
2022/04/09 06:54:21;;;;;;;12.65;3.53;;;;;;;3.62;82.63;101051.88;5038878;28;20041;-78
2022/04/09 06:56:47;;;;;;;23.42;3.15;;;;;;;3.63;82.95;101075.44;5032185;28;20396;-78
2022/04/09 06:59:17;;;;;;;17.38;3.40;;;;;;;3.63;83.16;101083.28;5016732;28;20393;-78
2022/04/09 07:01:43;;;;;;;10.68;3.17;;;;;;;3.61;82.91;101078.91;5048996;28;20061;-77
2022/04/09 07:04:09;;;;;;;11.85;2.83;;;;;;;3.60;82.65;101082.41;5016063;28;20041;-77
2022/04/09 07:06:35;;;;;;;10.55;2.60;;;;;;;3.54;83.39;101072.75;5029631;28;20033;-77
2022/04/09 07:09:00;;;;;;;9.52;2.65;;;;;;;3.51;83.40;101064.88;5039174;28;20017;-76
2022/04/09 07:11:26;;;;;;;14.02;3.83;;;;;;;3.51;83.80;101066.59;5029401;28;20052;-76
2022/04/09 07:13:52;;;;;;;13.85;3.47;;;;;;;3.51;83.81;101072.72;5030984;28;20111;-77
2022/04/09 07:16:18;;;;;;;12.07;2.78;;;;;;;3.51;83.86;101072.72;5033968;28;20477;-78
2022/04/09 07:18:43;;;;;;;12.50;3.08;;;;;;;3.53;84.55;101072.72;5016216;28;20033;-77
2022/04/09 07:21:09;;;;;;;12.63;3.08;;;;;;;3.54;84.34;101078.00;5032709;28;20038;-78
2022/04/09 07:23:34;;;;;;;13.27;3.70;;;;;;;3.56;84.97;101081.50;5030934;28;20060;-78
2022/04/09 07:26:00;;;;;;;16.00;3.42;;;;;;;3.59;85.12;101091.13;5012087;28;20148;-78
2022/04/09 07:28:25;;;;;;;8.45;3.25;;;;;;;3.63;85.39;101077.19;5032631;28;20033;-78
2022/04/09 07:30:51;;;;;;;16.08;3.40;;;;;;;3.75;86.05;101084.31;5031900;28;20156;-78
2022/04/09 07:33:17;;;;;;;17.05;3.50;;;;;;;3.86;86.14;101080.94;5032456;28;20033;-78
2022/04/09 07:35:42;;;;;;;13.32;3.33;;;;;;;4.02;85.97;101083.69;5032718;28;20483;-78
2022/04/09 07:38:08;;;;;;;9.50;2.60;;;;;;;4.12;83.99;101085.50;5032808;28;20049;-78
2022/04/09 07:40:33;;;;;;;17.90;3.58;;;;;;;4.19;84.45;101082.06;5036522;28;20108;-79
2022/04/09 07:43:00;;;;;;;16.23;2.90;;;;;;;4.27;84.00;101090.00;5053096;28;20064;-79
2022/04/09 07:45:27;;;;;;;12.48;2.88;;;;;;;4.32;82.71;101085.66;5050307;28;20064;-79
2022/04/09 07:47:57;;;;;;;9.45;2.00;;;;;;;4.34;83.23;101094.44;5050852;28;20101;-78
2022/04/09 07:50:25;;;;;;;12.63;2.78;;;;;;;4.40;82.92;101096.22;5051602;28;20117;-79
2022/04/09 07:52:51;;;;;;;10.55;2.65;;;;;;;4.48;83.94;101097.16;5050837;28;20028;-79
2022/04/09 07:55:17;;;;;;;18.45;3.20;;;;;;;4.58;82.19;101091.13;5051963;28;20089;-79
2022/04/09 07:57:44;;;;;;;16.38;3.50;;;;;;;4.60;82.28;101091.09;5050492;28;20499;-79
2022/04/09 08:00:10;;;;;;;16.63;4.13;;;;;;;4.69;82.87;101099.03;5033222;28;20083;-79
2022/04/09 08:02:38;;;;;;;16.25;3.25;;;;;;;4.83;82.78;101096.50;5031921;28;20072;-79
2022/04/09 08:05:04;;;;;;;18.58;4.93;;;;;;;4.98;81.61;101100.97;5033115;28;20074;-79
2022/04/09 08:07:30;;;;;;;19.77;3.22;;;;;;;5.11;82.00;101100.16;5035549;28;20045;-79
2022/04/09 08:09:55;;;;;;;19.88;3.70;;;;;;;5.22;80.57;101100.19;5050446;28;20040;-79
2022/04/09 08:12:21;;;;;;;15.63;2.90;;;;;;;5.31;80.30;101108.97;5047324;28;20555;-79
2022/04/09 08:14:46;;;;;;;18.63;3.75;;;;;;;5.41;78.04;101109.03;5031503;28;20036;-79
2022/04/09 08:17:12;;;;;;;15.32;4.15;;;;;;;5.53;78.03;101109.06;5031828;28;20055;-80
2022/04/09 08:19:37;;;;;;;15.02;3.15;;;;;;;5.64;76.46;101117.88;5031481;28;20355;-79
2022/04/09 08:22:04;;;;;;;10.05;2.80;;;;;;;5.71;74.58;101103.88;5031354;28;20055;-80
2022/04/09 08:24:30;;;;;;;14.57;3.33;;;;;;;5.81;73.58;101123.16;5018498;28;20472;-80
2022/04/09 08:26:55;;;;;;;13.85;2.78;;;;;;;5.87;73.71;101117.91;5051167;28;20040;-81
2022/04/09 08:29:21;;;;;;;13.40;2.53;;;;;;;5.98;72.05;101117.97;5034731;28;20069;-80
2022/04/09 08:31:47;;;;;;;10.52;2.50;;;;;;;6.13;72.48;101131.16;5052723;28;20032;-80
2022/04/09 08:34:17;;;;;;;9.95;2.70;;;;;;;6.19;70.09;101125.88;5051160;28;20025;-80
2022/04/09 08:36:43;;;;;;;9.52;2.55;;;;;;;6.22;71.14;101138.16;5050872;28;20562;-80
2022/04/09 08:39:09;;;;;;;11.68;2.65;;;;;;;6.28;71.25;101138.16;5052380;28;20457;-80
2022/04/09 08:41:36;;;;;;;8.52;2.33;;;;;;;6.39;72.25;101135.53;5039100;28;20051;-80
2022/04/09 08:44:03;;;;;;;6.57;2.60;;;;;;;6.40;70.66;101159.19;5014357;28;20049;-80
2022/04/09 08:46:30;;;;;;;7.97;2.70;;;;;;;6.22;67.26;101157.44;5032590;28;20029;-79
2022/04/09 08:48:58;;;;;;;3.60;1.50;;;;;;;5.98;68.94;101167.91;5031834;28;20117;-77
2022/04/09 08:51:23;;;;;;;7.18;2.10;;;;;;;5.54;70.12;101166.00;5030869;28;20193;-78
2022/04/09 08:53:50;;;;;;;6.13;1.55;;;;;;;5.44;71.84;101172.97;5029545;28;20125;-77
2022/04/09 08:56:18;;;;;;;5.35;1.52;;;;;;;5.31;72.00;101177.25;5031617;28;20436;-78
2022/04/09 08:58:44;;;;;;;5.00;1.25;;;;;;;5.13;72.39;101178.03;5030251;28;20040;-79
2022/04/09 09:01:09;;;;;;;4.20;1.15;;;;;;;5.08;72.94;101181.53;5030792;28;20049;-79
2022/04/09 09:03:35;;;;;;;5.40;1.73;;;;;;;5.04;72.44;101182.34;5013976;28;20041;-79
2022/04/09 09:06:01;;;;;;;4.82;1.67;;;;;;;4.96;72.51;101188.44;5030188;28;20030;-78
2022/04/09 09:08:41;;;;;;;4.32;1.30;;;;;;;5.01;74.78;101198.97;5032236;28;20422;-79
2022/04/09 09:11:07;;;;;;;1.85;1.15;;;;;;;5.11;73.87;101198.16;5048992;28;20388;-79
2022/04/09 09:13:46;;;;;;;4.90;1.60;;;;;;;5.17;72.43;101213.09;5037459;28;20037;-79
2022/04/09 09:16:22;;;;;;;5.78;1.40;;;;;;;5.18;71.61;101220.09;5031769;28;20507;-82
2022/04/09 09:18:51;;;;;;;4.93;1.98;;;;;;;5.09;71.20;101233.13;5030150;28;20056;-80
2022/04/09 09:21:18;;;;;;;4.57;1.55;;;;;;;4.94;72.52;101237.41;5031367;28;20037;-78
2022/04/09 09:23:43;;;;;;;3.60;1.20;;;;;;;4.89;69.60;101238.25;5031065;28;20037;-79
2022/04/09 09:26:10;;;;;;;2.70;1.10;;;;;;;4.61;72.03;101239.78;5047286;28;20032;-80
2022/04/09 09:28:35;;;;;;;6.05;1.67;;;;;;;4.45;72.48;101228.25;5032725;28;20033;-78
2022/04/09 09:31:02;;;;;;;3.95;1.20;;;;;;;4.38;71.14;101221.22;5049767;28;20045;-79
2022/04/09 09:33:28;;;;;;;2.25;1.13;;;;;;;4.34;69.62;101219.41;5050783;28;20162;-79
2022/04/09 09:35:59;;;;;;;5.68;1.27;;;;;;;4.37;70.12;101215.06;5048910;28;20106;-79
2022/04/09 09:38:27;;;;;;;2.25;1.10;;;;;;;4.57;69.79;101220.47;5050596;28;20051;-79
2022/04/09 09:40:54;;;;;;;4.25;1.05;;;;;;;4.84;70.88;101211.09;5043491;28;20389;-79
2022/04/09 09:43:22;;;;;;;4.32;1.15;;;;;;;5.10;68.91;101217.41;5029360;28;20409;-79
2022/04/09 09:45:50;;;;;;;6.95;1.70;;;;;;;5.34;68.73;101210.53;5031237;28;20033;-78
2022/04/09 09:48:20;;;;;;;5.05;1.40;;;;;;;5.55;69.13;101204.53;5029185;28;20495;-79
2022/04/09 09:50:46;;;;;;;3.80;1.70;;;;;;;5.78;69.34;101199.34;5029608;28;20462;-79
2022/04/09 09:53:11;;;;;;;7.88;1.70;;;;;;;6.02;71.33;101206.47;5030746;28;20104;-79
2022/04/09 09:55:44;;;;;;;3.78;1.73;;;;;;;6.28;70.50;101210.91;5029555;28;20045;-79
2022/04/09 09:58:15;;;;;;;6.30;1.95;;;;;;;6.53;70.94;101210.09;5029232;28;20036;-79
2022/04/09 10:00:41;;;;;;;6.35;1.92;;;;;;;6.81;70.14;101208.31;5012930;28;20037;-79
2022/04/09 10:03:09;;;;;;;7.78;2.45;;;;;;;7.01;67.11;101200.41;5029452;28;20030;-81
2022/04/09 10:05:38;;;;;;;7.63;2.08;;;;;;;7.16;69.11;101215.28;5030737;28;20065;-80
2022/04/09 10:08:08;;;;;;;8.60;2.20;;;;;;;7.39;65.62;101203.81;5038390;28;20421;-80
2022/04/09 10:10:38;;;;;;;12.38;2.75;;;;;;;7.66;65.72;101201.09;5049501;28;20110;-79
2022/04/09 10:13:04;;;;;;;11.20;2.70;;;;;;;7.91;64.50;101198.34;5012711;28;20034;-81
2022/04/09 10:15:31;;;;;;;13.65;2.53;;;;;;;7.90;63.82;101197.47;5030838;28;20037;-80
2022/04/09 10:18:01;;;;;;;10.07;2.45;;;;;;;7.83;63.00;101200.16;5012644;28;20098;-80
2022/04/09 10:20:29;;;;;;;11.15;2.42;;;;;;;7.69;62.34;101193.19;5029418;28;20033;-80
2022/04/09 10:22:58;;;;;;;6.03;1.65;;;;;;;7.84;63.02;101192.25;5029083;28;20064;-80
2022/04/09 10:25:29;;;;;;;9.55;3.10;;;;;;;7.92;64.10;101206.25;5042198;28;20021;-80
2022/04/09 10:28:03;;;;;;;15.50;3.00;;;;;;;8.14;60.56;101193.81;5030264;28;20037;-80
2022/04/09 10:30:38;;;;;;;7.45;2.08;;;;;;;8.36;60.05;101201.59;5030549;28;20041;-80
2022/04/09 10:33:21;;;;;;;6.70;2.03;;;;;;;8.69;54.98;101199.63;5029114;28;20037;-80
2022/04/09 10:35:48;;;;;;;7.20;2.00;;;;;;;8.90;55.87;101209.09;5030591;28;20128;-80
2022/04/09 10:38:17;;;;;;;7.32;1.83;;;;;;;9.14;54.63;101193.03;5030384;28;20034;-80
2022/04/09 10:40:43;;;;;;;7.47;2.13;;;;;;;9.33;52.11;101204.28;5036240;28;20041;-80
2022/04/09 10:43:30;;;;;;;4.47;1.05;;;;;;;9.60;50.13;101200.44;5050138;28;20102;-80
2022/04/09 10:46:15;;;;;;;7.32;1.90;;;;;;;9.85;50.59;101210.72;5046837;28;20091;-80
2022/04/09 10:48:47;;;;;;;5.82;1.63;;;;;;;9.97;47.65;101210.56;5050830;28;20041;-80
2022/04/09 10:51:14;;;;;;;5.57;1.80;;;;;;;9.94;46.45;101201.78;5034213;28;20037;-80
2022/04/09 10:53:48;;;;;;;3.90;1.42;;;;;;;9.72;47.46;101217.03;5034316;28;20125;-80
2022/04/09 10:56:24;;;;;;;5.15;1.67;;;;;;;9.68;46.62;101213.56;5033786;28;20393;-80
2022/04/09 10:59:08;;;;;;;4.82;1.52;;;;;;;9.40;47.77;101213.91;5032783;28;20044;-80
2022/04/09 11:01:46;;;;;;;7.10;1.83;;;;;;;9.24;47.99;101217.59;5016484;28;20458;-80
2022/04/09 11:04:31;;;;;;;6.25;1.67;;;;;;;9.16;49.24;101232.66;5032784;28;20380;-79
2022/04/09 11:07:19;;;;;;;5.88;1.35;;;;;;;9.08;46.48;101224.81;5036496;28;20480;-79
2022/04/09 11:10:06;;;;;;;2.72;1.40;;;;;;;9.16;47.56;101216.81;5050666;28;20511;-80
2022/04/09 11:12:37;;;;;;;3.92;1.38;;;;;;;9.10;46.70;101222.13;5047585;28;20432;-80
2022/04/09 11:15:04;;;;;;;;;;;;;;;9.18;47.31;101223.81;5032898;28;20071;-80
2022/04/09 11:17:32;;;;;;;4.85;1.55;;;;;;;8.96;45.51;101217.88;5033454;28;19909;-80
2022/04/09 11:20:02;;;;;;;6.10;1.42;;;;;;;8.73;44.33;101196.94;5032251;28;20396;-80
2022/04/09 11:22:51;;;;;;;5.30;1.33;;;;;;;8.67;46.32;101218.09;5033576;28;20033;-81
2022/04/09 11:25:28;;;;;;;5.25;1.50;;;;;;;8.97;45.07;101227.53;5036920;28;20060;-81
2022/04/09 11:28:13;;;;;;;3.05;1.38;;;;;;;8.87;43.74;101228.50;5035078;28;20035;-80
2022/04/09 11:30:55;;;;;;;5.50;1.50;;;;;;;9.00;44.37;101227.53;5039155;28;20052;-80
2022/04/09 11:33:22;;;;;;;2.65;0.95;;;;;;;9.10;44.02;101225.69;5033292;28;20033;-80